createdAt,value
2023-04-22T00:07:45.722Z,20.10
2023-04-22T00:16:08.931Z,22.70
2023-04-22T00:24:32.052Z,23.40
2023-04-22T00:32:55.309Z,21.90
2023-04-22T00:41:18.486Z,19.80
2023-04-22T00:49:42.166Z,19.50
2023-04-22T00:58:05.653Z,59.70
2023-04-22T01:06:30.033Z,18.60
2023-04-22T01:14:53.049Z,15.30
2023-04-22T01:23:24.809Z,17.90
2023-04-22T01:31:47.991Z,17.20
2023-04-22T01:40:11.742Z,15.00
2023-04-22T01:48:35.892Z,14.50
2023-04-22T01:56:59.271Z,14.70
2023-04-22T02:05:22.405Z,13.40
2023-04-22T02:13:45.469Z,14.80
2023-04-22T02:22:08.840Z,16.20
2023-04-22T02:30:32.238Z,13.80
2023-04-22T02:38:55.319Z,13.50
2023-04-22T02:47:18.307Z,14.30
2023-04-22T02:55:42.081Z,18.50
2023-04-22T03:04:05.206Z,16.30
2023-04-22T03:12:28.326Z,17.00
2023-04-22T03:20:51.612Z,16.60
2023-04-22T03:29:14.940Z,14.90
2023-04-22T03:37:40.254Z,15.30
2023-04-22T03:46:04.180Z,16.20
2023-04-22T03:54:29.651Z,14.20
2023-04-22T04:02:53.011Z,16.50
2023-04-22T04:11:17.971Z,15.90
2023-04-22T04:19:42.633Z,14.00
2023-04-22T04:28:09.677Z,13.40
2023-04-22T04:36:33.448Z,15.60
2023-04-22T04:45:07.771Z,28.30
2023-04-22T04:53:31.582Z,19.70
2023-04-22T05:01:55.193Z,15.10
2023-04-22T05:10:18.793Z,19.50
2023-04-22T05:18:42.141Z,17.00
2023-04-22T05:27:06.296Z,16.30
2023-04-22T05:35:29.997Z,16.60
2023-04-22T05:43:54.826Z,15.90
2023-04-22T05:52:18.931Z,16.00
2023-04-22T06:00:56.967Z,12.30
2023-04-22T06:10:02.220Z,12.50
2023-04-22T06:18:28.334Z,8.90
2023-04-22T06:26:52.308Z,11.60
2023-04-22T06:35:18.820Z,7.70
2023-04-22T06:43:41.895Z,8.30
2023-04-22T06:52:05.751Z,7.70
2023-04-22T07:00:30.411Z,7.50
2023-04-22T07:08:55.015Z,5.90
2023-04-22T07:17:22.312Z,5.70
2023-04-22T07:25:45.357Z,5.50
2023-04-22T07:34:10.741Z,6.40
2023-04-22T07:42:33.699Z,8.30
2023-04-22T07:50:56.679Z,6.60
2023-04-22T07:59:19.695Z,5.50
2023-04-22T08:07:42.664Z,11.30
2023-04-22T08:16:07.543Z,10.10
2023-04-22T08:24:30.606Z,4.80
2023-04-22T08:32:53.706Z,3.80
2023-04-22T08:41:18.971Z,4.60
2023-04-22T08:49:42.691Z,3.30
2023-04-22T08:58:06.298Z,3.40
2023-04-22T09:06:32.446Z,4.30
2023-04-22T09:14:56.429Z,3.00
2023-04-22T09:23:19.389Z,3.00
2023-04-22T09:31:43.278Z,3.20
2023-04-22T09:40:07.667Z,3.80
2023-04-22T09:48:30.759Z,2.90
2023-04-22T09:56:53.909Z,2.50
2023-04-22T10:05:18.079Z,2.20
2023-04-22T10:13:41.047Z,2.30
2023-04-22T10:22:04.918Z,5.10
2023-04-22T10:30:30.706Z,2.50
2023-04-22T10:38:53.880Z,6.30
2023-04-22T10:47:28.914Z,3.90
2023-04-22T10:55:53.182Z,2.10
2023-04-22T11:04:23.553Z,1.90
2023-04-22T11:12:49.771Z,2.50
2023-04-22T11:21:14.489Z,2.10
2023-04-22T11:29:37.695Z,1.60
2023-04-22T11:38:09.977Z,1.70
2023-04-22T11:46:39.597Z,2.30
2023-04-22T11:55:02.647Z,1.70
2023-04-22T12:03:30.470Z,2.00
2023-04-22T12:11:53.551Z,1.60
2023-04-22T12:20:16.435Z,2.60
2023-04-22T12:28:40.278Z,1.80
2023-04-22T12:37:03.521Z,10.20
2023-04-22T12:45:26.487Z,7.40
2023-04-22T12:53:49.375Z,2.10
2023-04-22T13:02:12.431Z,1.40
2023-04-22T13:10:36.132Z,1.80
2023-04-22T13:18:59.278Z,1.60
2023-04-22T13:27:22.210Z,2.50
2023-04-22T13:35:45.257Z,5.20
2023-04-22T13:44:08.419Z,3.20
2023-04-22T13:52:31.492Z,3.90
2023-04-22T14:00:54.997Z,1.90
2023-04-22T14:09:18.585Z,1.70
2023-04-22T14:17:41.942Z,1.70
2023-04-22T14:26:06.809Z,3.90
2023-04-22T14:34:29.801Z,6.10
2023-04-22T14:42:52.955Z,2.10
2023-04-22T14:51:16.044Z,2.20
2023-04-22T14:59:39.067Z,3.00
2023-04-22T15:08:02.559Z,4.50
2023-04-22T15:16:26.123Z,3.90
2023-04-22T15:24:49.200Z,27.00
2023-04-22T15:33:12.170Z,2.50
2023-04-22T15:41:35.363Z,1.90
2023-04-22T15:50:07.014Z,4.10
2023-04-22T15:58:32.483Z,3.50
2023-04-22T16:06:59.323Z,3.10
2023-04-22T16:15:24.336Z,3.80
2023-04-22T16:23:48.674Z,2.60
2023-04-22T16:32:11.703Z,7.20
2023-04-22T16:40:35.439Z,2.80
2023-04-22T16:48:58.560Z,5.80
2023-04-22T16:57:21.662Z,17.20
2023-04-22T17:05:44.739Z,47.90
2023-04-22T17:14:07.893Z,34.70
2023-04-22T17:22:30.791Z,15.90
2023-04-22T17:30:53.872Z,9.00
2023-04-22T17:39:16.910Z,14.30
2023-04-22T17:47:39.975Z,19.20
2023-04-22T17:56:03.112Z,48.20
2023-04-22T18:04:26.123Z,19.00
2023-04-22T18:12:49.618Z,6.80
2023-04-22T18:21:12.558Z,15.60
2023-04-22T18:29:36.006Z,25.70
2023-04-22T18:38:01.116Z,28.90
2023-04-22T18:46:24.414Z,88.00
2023-04-22T18:54:47.423Z,26.70
2023-04-22T19:03:10.855Z,39.50
2023-04-22T19:11:34.057Z,32.70
2023-04-22T19:19:57.216Z,33.30
2023-04-22T19:28:20.208Z,28.20
2023-04-22T19:36:43.392Z,37.40
2023-04-22T19:45:11.613Z,40.20
2023-04-22T19:53:35.641Z,32.00
2023-04-22T20:01:59.191Z,48.30
2023-04-22T20:10:22.915Z,30.80
2023-04-22T20:18:46.585Z,33.10
2023-04-22T20:27:09.791Z,32.60
2023-04-22T20:35:35.396Z,31.30
2023-04-22T20:43:58.518Z,40.80
2023-04-22T20:52:21.820Z,39.20
2023-04-22T21:00:45.909Z,40.20
2023-04-22T21:09:10.676Z,39.60
2023-04-22T21:17:35.683Z,30.00
2023-04-22T21:26:01.856Z,29.60
2023-04-22T21:34:24.977Z,33.60
2023-04-22T21:42:49.426Z,29.50
2023-04-22T21:51:12.593Z,31.60
2023-04-22T21:59:35.600Z,29.60
2023-04-22T22:07:58.677Z,26.50
2023-04-22T22:16:21.828Z,25.00
2023-04-22T22:24:45.657Z,22.60
2023-04-22T22:33:08.703Z,20.80
2023-04-22T22:41:32.776Z,21.60
2023-04-22T22:49:55.724Z,21.00
2023-04-22T22:58:18.640Z,20.70
2023-04-22T23:06:41.728Z,21.30
2023-04-22T23:15:06.138Z,23.40
2023-04-22T23:23:29.906Z,23.80
2023-04-22T23:31:53.103Z,23.60
2023-04-22T23:40:16.270Z,21.90
2023-04-22T23:48:39.696Z,24.30
2023-04-22T23:57:02.875Z,25.40
